Decoded Metar for EYKA (KAUNAS in LITHUANIA) (IATA:N/A) | Meteo·Mobile Aviation Weather
aviador You're here:

EYKA Decoded Metar

KAUNAS in LITHUANIA
Report Time2018-11-15 11:50:00
UTC Time2018-11-15 12:12:12
Flight Rules vfr VFR
Wind070° at 05 kt
W.Decomp.*RWY 08: 4.8 kt HW 1.4 kt LCW
W.Rank070° ranks 21
Current wind is below 070° avg. (5.5)
Visibility9999 m
Phenomena:N/A
Clouds:Few 011 Hf
Overcast 043 Hf
Expected CloudBase > 800 ft AGL from Temp-Dew spread
Ceiling4,300 ft
Temp08°C (ISA -6)
Dew Point06°C (87% RH)
AAT5.3°C
QNH1033 hPa
Density Alt-1,073 ft
Elevation253 ft
Report Wrong Elevation
Raw Report
EYKA 151150Z 07005KT 040V110 9999 FEW011 OVC043 08/06 Q1033
R08/190095=

Extra information for EYKA:More info

Metar Taf Metar & Taf Last 4 Metars F.Rules Stats Wind Profile Meteogram Temp Stats Airport Information Weather charts Add Link Nearby VenuesMetar ALERT Operation Metar Decoded Social comments